Terminal Aerodrome Forecast
Issued by NWS Sioux Falls, SD

Home | Current Version | Previous Version | Text Only | Print | Product List | Glossary Off
Versions: 1 2 3 4 5 6 7 8 9 10 11 12 13 14 15 16 17 18 19 20

686
FTUS43 KFSD 181738
TAFFSD
TAF
KFSD 181738Z 1818/1918 20007KT P6SM FEW250
     FM182300 17008KT P6SM FEW250
     FM191100 17007KT P6SM BKN015
     FM191300 17007KT 6SM BR OVC012
     FM191500 17008KT 4SM BR OVC008=

USA.gov is the U.S. government's official web portal to all federal, state and local government web resources and services.